sensor_id;sensor_type;location;lat;lon;timestamp;P1;durP1;ratioP1;P2;durP2;ratioP2
19374;SDS011;9823;50.936;4.046;2023-02-07T00:00:48;78.80;;;25.83;;
19374;SDS011;9823;50.936;4.046;2023-02-07T00:03:14;114.63;;;28.63;;
19374;SDS011;9823;50.936;4.046;2023-02-07T00:05:40;83.10;;;22.47;;
19374;SDS011;9823;50.936;4.046;2023-02-07T00:08:07;67.47;;;22.77;;
19374;SDS011;9823;50.936;4.046;2023-02-07T00:10:35;61.43;;;23.97;;
19374;SDS011;9823;50.936;4.046;2023-02-07T00:13:03;86.20;;;27.37;;
19374;SDS011;9823;50.936;4.046;2023-02-07T00:15:32;51.93;;;19.77;;
19374;SDS011;9823;50.936;4.046;2023-02-07T00:17:58;44.57;;;19.93;;
19374;SDS011;9823;50.936;4.046;2023-02-07T00:20:24;45.97;;;20.57;;
19374;SDS011;9823;50.936;4.046;2023-02-07T00:22:50;49.67;;;20.00;;
19374;SDS011;9823;50.936;4.046;2023-02-07T00:25:18;52.47;;;19.43;;
19374;SDS011;9823;50.936;4.046;2023-02-07T00:27:47;44.40;;;18.80;;
19374;SDS011;9823;50.936;4.046;2023-02-07T00:30:13;52.87;;;20.57;;
19374;SDS011;9823;50.936;4.046;2023-02-07T00:32:39;49.53;;;18.13;;
19374;SDS011;9823;50.936;4.046;2023-02-07T00:35:05;48.97;;;18.33;;
19374;SDS011;9823;50.936;4.046;2023-02-07T00:37:34;64.53;;;22.50;;
19374;SDS011;9823;50.936;4.046;2023-02-07T00:40:00;48.90;;;19.00;;
19374;SDS011;9823;50.936;4.046;2023-02-07T00:42:26;48.47;;;17.83;;
19374;SDS011;9823;50.936;4.046;2023-02-07T00:44:54;39.43;;;18.60;;
19374;SDS011;9823;50.936;4.046;2023-02-07T00:47:25;43.30;;;20.57;;
19374;SDS011;9823;50.936;4.046;2023-02-07T00:49:53;42.40;;;20.10;;
19374;SDS011;9823;50.936;4.046;2023-02-07T00:52:19;39.60;;;20.63;;
19374;SDS011;9823;50.936;4.046;2023-02-07T00:54:47;41.13;;;19.53;;
19374;SDS011;9823;50.936;4.046;2023-02-07T00:57:13;44.57;;;20.00;;
19374;SDS011;9823;50.936;4.046;2023-02-07T00:59:42;43.00;;;20.07;;
19374;SDS011;9823;50.936;4.046;2023-02-07T01:02:08;50.93;;;20.57;;
19374;SDS011;9823;50.936;4.046;2023-02-07T01:04:34;45.97;;;19.97;;
19374;SDS011;9823;50.936;4.046;2023-02-07T01:07:00;43.57;;;20.57;;
19374;SDS011;9823;50.936;4.046;2023-02-07T01:09:26;47.33;;;19.63;;
19374;SDS011;9823;50.936;4.046;2023-02-07T01:11:54;42.17;;;18.77;;
19374;SDS011;9823;50.936;4.046;2023-02-07T01:14:23;50.33;;;19.57;;
19374;SDS011;9823;50.936;4.046;2023-02-07T01:16:51;54.13;;;20.17;;
19374;SDS011;9823;50.936;4.046;2023-02-07T01:19:19;63.60;;;22.47;;
19374;SDS011;9823;50.936;4.046;2023-02-07T01:21:46;79.37;;;22.97;;
19374;SDS011;9823;50.936;4.046;2023-02-07T01:24:12;57.20;;;22.97;;
19374;SDS011;9823;50.936;4.046;2023-02-07T01:26:38;55.60;;;21.60;;
19374;SDS011;9823;50.936;4.046;2023-02-07T01:29:07;63.63;;;23.37;;
19374;SDS011;9823;50.936;4.046;2023-02-07T01:31:33;44.07;;;16.43;;
19374;SDS011;9823;50.936;4.046;2023-02-07T01:34:01;66.00;;;22.23;;
19374;SDS011;9823;50.936;4.046;2023-02-07T01:36:28;39.20;;;19.60;;
19374;SDS011;9823;50.936;4.046;2023-02-07T01:38:54;47.97;;;20.00;;
19374;SDS011;9823;50.936;4.046;2023-02-07T01:41:21;45.70;;;19.73;;
19374;SDS011;9823;50.936;4.046;2023-02-07T01:43:55;68.10;;;22.70;;
19374;SDS011;9823;50.936;4.046;2023-02-07T01:46:21;65.57;;;22.93;;
19374;SDS011;9823;50.936;4.046;2023-02-07T01:48:49;48.10;;;18.93;;
19374;SDS011;9823;50.936;4.046;2023-02-07T01:51:17;59.67;;;19.40;;
19374;SDS011;9823;50.936;4.046;2023-02-07T01:53:43;76.07;;;23.17;;
19374;SDS011;9823;50.936;4.046;2023-02-07T01:56:11;136.53;;;34.47;;
19374;SDS011;9823;50.936;4.046;2023-02-07T01:58:38;62.63;;;19.27;;
19374;SDS011;9823;50.936;4.046;2023-02-07T02:01:06;103.43;;;29.30;;
19374;SDS011;9823;50.936;4.046;2023-02-07T02:03:34;87.47;;;26.03;;
19374;SDS011;9823;50.936;4.046;2023-02-07T02:06:02;89.30;;;24.40;;
19374;SDS011;9823;50.936;4.046;2023-02-07T02:08:28;59.77;;;20.23;;
19374;SDS011;9823;50.936;4.046;2023-02-07T02:16:02;47.00;;;17.73;;
19374;SDS011;9823;50.936;4.046;2023-02-07T02:44:21;92.53;;;24.80;;
19374;SDS011;9823;50.936;4.046;2023-02-07T02:46:48;109.03;;;30.60;;
19374;SDS011;9823;50.936;4.046;2023-02-07T02:49:16;145.87;;;37.97;;
19374;SDS011;9823;50.936;4.046;2023-02-07T02:51:42;80.23;;;26.10;;
19374;SDS011;9823;50.936;4.046;2023-02-07T02:54:27;70.33;;;21.13;;
19374;SDS011;9823;50.936;4.046;2023-02-07T02:57:03;53.33;;;18.17;;
19374;SDS011;9823;50.936;4.046;2023-02-07T03:07:40;64.90;;;20.70;;
19374;SDS011;9823;50.936;4.046;2023-02-07T03:12:46;65.53;;;21.97;;
19374;SDS011;9823;50.936;4.046;2023-02-07T03:15:17;96.73;;;28.10;;
19374;SDS011;9823;50.936;4.046;2023-02-07T03:17:56;142.77;;;35.57;;
19374;SDS011;9823;50.936;4.046;2023-02-07T03:20:27;76.60;;;23.70;;
19374;SDS011;9823;50.936;4.046;2023-02-07T03:22:56;79.97;;;26.90;;
19374;SDS011;9823;50.936;4.046;2023-02-07T03:25:25;58.10;;;19.37;;
19374;SDS011;9823;50.936;4.046;2023-02-07T03:27:52;88.47;;;25.47;;
19374;SDS011;9823;50.936;4.046;2023-02-07T03:30:19;43.50;;;17.00;;
19374;SDS011;9823;50.936;4.046;2023-02-07T03:32:48;61.33;;;20.97;;
19374;SDS011;9823;50.936;4.046;2023-02-07T03:37:45;48.43;;;17.37;;
19374;SDS011;9823;50.936;4.046;2023-02-07T03:40:12;49.10;;;18.03;;
19374;SDS011;9823;50.936;4.046;2023-02-07T03:42:52;41.93;;;18.50;;
19374;SDS011;9823;50.936;4.046;2023-02-07T03:45:22;50.97;;;18.57;;
19374;SDS011;9823;50.936;4.046;2023-02-07T03:47:48;42.07;;;19.13;;
19374;SDS011;9823;50.936;4.046;2023-02-07T03:50:14;51.57;;;19.43;;
19374;SDS011;9823;50.936;4.046;2023-02-07T03:52:40;51.13;;;18.67;;
19374;SDS011;9823;50.936;4.046;2023-02-07T03:55:07;56.30;;;20.37;;
19374;SDS011;9823;50.936;4.046;2023-02-07T03:57:33;49.77;;;20.13;;
19374;SDS011;9823;50.936;4.046;2023-02-07T03:59:59;54.17;;;19.67;;
19374;SDS011;9823;50.936;4.046;2023-02-07T04:02:27;39.30;;;17.87;;
19374;SDS011;9823;50.936;4.046;2023-02-07T04:04:53;48.37;;;18.97;;
19374;SDS011;9823;50.936;4.046;2023-02-07T04:07:21;48.70;;;18.83;;
19374;SDS011;9823;50.936;4.046;2023-02-07T04:09:47;48.07;;;20.70;;
19374;SDS011;9823;50.936;4.046;2023-02-07T04:12:16;46.30;;;19.33;;
19374;SDS011;9823;50.936;4.046;2023-02-07T04:14:44;40.77;;;18.53;;
19374;SDS011;9823;50.936;4.046;2023-02-07T04:17:16;45.13;;;17.43;;
19374;SDS011;9823;50.936;4.046;2023-02-07T04:19:42;46.80;;;17.70;;
19374;SDS011;9823;50.936;4.046;2023-02-07T04:22:08;48.33;;;19.73;;
19374;SDS011;9823;50.936;4.046;2023-02-07T04:24:36;45.57;;;19.43;;
19374;SDS011;9823;50.936;4.046;2023-02-07T04:27:02;55.63;;;19.37;;
19374;SDS011;9823;50.936;4.046;2023-02-07T04:29:28;53.77;;;19.97;;
19374;SDS011;9823;50.936;4.046;2023-02-07T04:31:57;66.83;;;21.70;;
19374;SDS011;9823;50.936;4.046;2023-02-07T04:34:23;62.53;;;20.00;;
19374;SDS011;9823;50.936;4.046;2023-02-07T04:36:49;98.47;;;21.57;;
19374;SDS011;9823;50.936;4.046;2023-02-07T04:39:17;81.30;;;22.87;;
19374;SDS011;9823;50.936;4.046;2023-02-07T04:41:43;130.17;;;23.67;;
19374;SDS011;9823;50.936;4.046;2023-02-07T04:44:09;80.33;;;20.50;;
19374;SDS011;9823;50.936;4.046;2023-02-07T04:46:35;79.40;;;19.97;;
19374;SDS011;9823;50.936;4.046;2023-02-07T04:49:01;85.10;;;19.57;;
19374;SDS011;9823;50.936;4.046;2023-02-07T04:51:28;86.90;;;23.17;;
19374;SDS011;9823;50.936;4.046;2023-02-07T04:53:57;66.77;;;21.17;;
19374;SDS011;9823;50.936;4.046;2023-02-07T04:56:25;96.97;;;22.63;;
19374;SDS011;9823;50.936;4.046;2023-02-07T04:58:51;191.93;;;30.07;;
19374;SDS011;9823;50.936;4.046;2023-02-07T05:01:17;131.90;;;25.77;;
19374;SDS011;9823;50.936;4.046;2023-02-07T05:03:44;185.47;;;25.03;;
19374;SDS011;9823;50.936;4.046;2023-02-07T05:06:12;101.87;;;24.03;;
19374;SDS011;9823;50.936;4.046;2023-02-07T05:08:38;68.93;;;19.80;;
19374;SDS011;9823;50.936;4.046;2023-02-07T05:11:04;101.97;;;21.73;;
19374;SDS011;9823;50.936;4.046;2023-02-07T05:13:31;122.20;;;23.70;;
19374;SDS011;9823;50.936;4.046;2023-02-07T05:15:57;122.00;;;22.30;;
19374;SDS011;9823;50.936;4.046;2023-02-07T05:18:23;118.60;;;21.47;;
19374;SDS011;9823;50.936;4.046;2023-02-07T05:20:51;110.00;;;20.37;;
19374;SDS011;9823;50.936;4.046;2023-02-07T05:23:18;117.80;;;20.50;;
19374;SDS011;9823;50.936;4.046;2023-02-07T05:25:47;234.67;;;27.60;;
19374;SDS011;9823;50.936;4.046;2023-02-07T05:28:15;82.43;;;18.30;;
19374;SDS011;9823;50.936;4.046;2023-02-07T05:30:41;113.40;;;19.50;;
19374;SDS011;9823;50.936;4.046;2023-02-07T05:33:08;90.50;;;20.20;;
19374;SDS011;9823;50.936;4.046;2023-02-07T05:35:42;89.70;;;20.77;;
19374;SDS011;9823;50.936;4.046;2023-02-07T05:38:12;86.53;;;19.67;;
19374;SDS011;9823;50.936;4.046;2023-02-07T05:40:39;92.10;;;18.20;;
19374;SDS011;9823;50.936;4.046;2023-02-07T05:43:05;63.90;;;15.97;;
19374;SDS011;9823;50.936;4.046;2023-02-07T05:45:34;77.20;;;18.57;;
19374;SDS011;9823;50.936;4.046;2023-02-07T05:48:00;74.70;;;20.27;;
19374;SDS011;9823;50.936;4.046;2023-02-07T05:50:26;170.27;;;29.50;;
19374;SDS011;9823;50.936;4.046;2023-02-07T05:52:52;185.20;;;29.07;;
19374;SDS011;9823;50.936;4.046;2023-02-07T05:55:18;135.30;;;28.83;;
19374;SDS011;9823;50.936;4.046;2023-02-07T05:57:47;59.10;;;18.90;;
19374;SDS011;9823;50.936;4.046;2023-02-07T06:00:17;55.57;;;17.07;;
19374;SDS011;9823;50.936;4.046;2023-02-07T06:02:43;106.47;;;23.57;;
19374;SDS011;9823;50.936;4.046;2023-02-07T06:05:13;66.43;;;22.07;;
19374;SDS011;9823;50.936;4.046;2023-02-07T06:07:39;70.47;;;21.70;;
19374;SDS011;9823;50.936;4.046;2023-02-07T06:10:09;53.57;;;17.13;;
19374;SDS011;9823;50.936;4.046;2023-02-07T06:12:35;68.10;;;20.90;;
19374;SDS011;9823;50.936;4.046;2023-02-07T06:15:01;57.53;;;19.67;;
19374;SDS011;9823;50.936;4.046;2023-02-07T06:17:30;58.43;;;18.17;;
19374;SDS011;9823;50.936;4.046;2023-02-07T06:19:58;106.57;;;25.77;;
19374;SDS011;9823;50.936;4.046;2023-02-07T06:22:24;355.97;;;40.10;;
19374;SDS011;9823;50.936;4.046;2023-02-07T06:24:50;65.07;;;18.80;;
19374;SDS011;9823;50.936;4.046;2023-02-07T06:27:19;45.60;;;18.03;;
19374;SDS011;9823;50.936;4.046;2023-02-07T06:29:45;55.50;;;17.70;;
19374;SDS011;9823;50.936;4.046;2023-02-07T06:32:13;68.10;;;19.07;;
19374;SDS011;9823;50.936;4.046;2023-02-07T06:34:39;75.80;;;17.33;;
19374;SDS011;9823;50.936;4.046;2023-02-07T06:37:05;56.23;;;19.33;;
19374;SDS011;9823;50.936;4.046;2023-02-07T06:39:31;72.33;;;21.40;;
19374;SDS011;9823;50.936;4.046;2023-02-07T06:42:00;89.43;;;20.97;;
19374;SDS011;9823;50.936;4.046;2023-02-07T06:44:28;231.93;;;34.37;;
19374;SDS011;9823;50.936;4.046;2023-02-07T06:46:57;82.80;;;22.43;;
19374;SDS011;9823;50.936;4.046;2023-02-07T06:49:23;50.00;;;19.13;;
19374;SDS011;9823;50.936;4.046;2023-02-07T06:51:51;43.20;;;17.53;;
19374;SDS011;9823;50.936;4.046;2023-02-07T06:54:17;45.60;;;16.80;;
19374;SDS011;9823;50.936;4.046;2023-02-07T06:56:45;42.40;;;14.20;;
19374;SDS011;9823;50.936;4.046;2023-02-07T06:59:11;37.07;;;16.60;;
19374;SDS011;9823;50.936;4.046;2023-02-07T07:01:38;83.30;;;18.30;;
19374;SDS011;9823;50.936;4.046;2023-02-07T07:04:04;84.53;;;19.20;;
19374;SDS011;9823;50.936;4.046;2023-02-07T07:06:30;100.40;;;19.97;;
19374;SDS011;9823;50.936;4.046;2023-02-07T07:08:56;54.30;;;15.73;;
19374;SDS011;9823;50.936;4.046;2023-02-07T07:11:25;184.37;;;25.37;;
19374;SDS011;9823;50.936;4.046;2023-02-07T07:13:51;132.00;;;21.97;;
19374;SDS011;9823;50.936;4.046;2023-02-07T07:16:17;154.30;;;21.40;;
19374;SDS011;9823;50.936;4.046;2023-02-07T07:18:43;146.57;;;20.07;;
19374;SDS011;9823;50.936;4.046;2023-02-07T07:21:09;116.83;;;17.60;;
19374;SDS011;9823;50.936;4.046;2023-02-07T07:23:38;97.67;;;19.80;;
19374;SDS011;9823;50.936;4.046;2023-02-07T07:26:09;80.27;;;18.73;;
19374;SDS011;9823;50.936;4.046;2023-02-07T07:28:35;133.57;;;21.43;;
19374;SDS011;9823;50.936;4.046;2023-02-07T07:31:04;80.87;;;19.17;;
19374;SDS011;9823;50.936;4.046;2023-02-07T07:33:30;83.03;;;19.00;;
19374;SDS011;9823;50.936;4.046;2023-02-07T07:35:57;101.03;;;17.13;;
19374;SDS011;9823;50.936;4.046;2023-02-07T07:38:23;59.53;;;16.77;;
19374;SDS011;9823;50.936;4.046;2023-02-07T07:40:52;43.83;;;15.63;;
19374;SDS011;9823;50.936;4.046;2023-02-07T07:43:18;54.67;;;17.50;;
19374;SDS011;9823;50.936;4.046;2023-02-07T07:45:45;64.53;;;18.37;;
19374;SDS011;9823;50.936;4.046;2023-02-07T07:48:11;65.70;;;16.80;;
19374;SDS011;9823;50.936;4.046;2023-02-07T07:50:37;36.70;;;16.63;;
19374;SDS011;9823;50.936;4.046;2023-02-07T07:53:03;112.00;;;19.53;;
19374;SDS011;9823;50.936;4.046;2023-02-07T07:55:29;69.20;;;17.07;;
19374;SDS011;9823;50.936;4.046;2023-02-07T07:57:57;59.97;;;16.67;;
19374;SDS011;9823;50.936;4.046;2023-02-07T08:00:23;104.67;;;19.80;;
19374;SDS011;9823;50.936;4.046;2023-02-07T08:02:49;107.53;;;19.33;;
19374;SDS011;9823;50.936;4.046;2023-02-07T08:05:15;76.13;;;18.30;;
19374;SDS011;9823;50.936;4.046;2023-02-07T08:07:41;95.77;;;21.33;;
19374;SDS011;9823;50.936;4.046;2023-02-07T08:10:08;77.37;;;18.80;;
19374;SDS011;9823;50.936;4.046;2023-02-07T08:12:34;98.47;;;18.03;;
19374;SDS011;9823;50.936;4.046;2023-02-07T08:15:00;78.47;;;16.80;;
19374;SDS011;9823;50.936;4.046;2023-02-07T08:17:26;56.80;;;16.67;;
19374;SDS011;9823;50.936;4.046;2023-02-07T08:20:01;61.27;;;17.50;;
19374;SDS011;9823;50.936;4.046;2023-02-07T08:22:27;67.73;;;19.23;;
19374;SDS011;9823;50.936;4.046;2023-02-07T08:24:53;64.50;;;16.23;;
19374;SDS011;9823;50.936;4.046;2023-02-07T08:27:21;267.03;;;23.47;;
19374;SDS011;9823;50.936;4.046;2023-02-07T08:29:47;57.20;;;19.93;;
19374;SDS011;9823;50.936;4.046;2023-02-07T08:32:13;72.40;;;20.97;;
19374;SDS011;9823;50.936;4.046;2023-02-07T08:34:41;60.27;;;18.47;;
19374;SDS011;9823;50.936;4.046;2023-02-07T08:37:10;57.53;;;17.47;;
19374;SDS011;9823;50.936;4.046;2023-02-07T08:39:36;56.63;;;16.80;;
19374;SDS011;9823;50.936;4.046;2023-02-07T08:42:02;69.23;;;22.17;;
19374;SDS011;9823;50.936;4.046;2023-02-07T08:44:32;79.50;;;19.13;;
19374;SDS011;9823;50.936;4.046;2023-02-07T08:46:58;48.87;;;17.53;;
19374;SDS011;9823;50.936;4.046;2023-02-07T08:49:24;235.40;;;25.80;;
19374;SDS011;9823;50.936;4.046;2023-02-07T08:51:53;56.83;;;16.13;;
19374;SDS011;9823;50.936;4.046;2023-02-07T08:54:19;90.70;;;21.03;;
19374;SDS011;9823;50.936;4.046;2023-02-07T08:56:45;47.37;;;18.90;;
19374;SDS011;9823;50.936;4.046;2023-02-07T08:59:11;52.17;;;20.83;;
19374;SDS011;9823;50.936;4.046;2023-02-07T09:01:39;53.60;;;19.30;;
19374;SDS011;9823;50.936;4.046;2023-02-07T09:04:05;40.23;;;17.40;;
19374;SDS011;9823;50.936;4.046;2023-02-07T09:06:32;47.07;;;16.80;;
19374;SDS011;9823;50.936;4.046;2023-02-07T09:08:58;63.83;;;20.00;;
19374;SDS011;9823;50.936;4.046;2023-02-07T09:11:26;51.50;;;19.63;;
19374;SDS011;9823;50.936;4.046;2023-02-07T09:13:55;45.57;;;18.47;;
19374;SDS011;9823;50.936;4.046;2023-02-07T09:16:21;39.53;;;17.83;;
19374;SDS011;9823;50.936;4.046;2023-02-07T09:18:52;42.13;;;16.37;;
19374;SDS011;9823;50.936;4.046;2023-02-07T09:21:18;53.70;;;21.80;;
19374;SDS011;9823;50.936;4.046;2023-02-07T09:23:46;37.50;;;16.27;;
19374;SDS011;9823;50.936;4.046;2023-02-07T09:26:14;47.40;;;18.03;;
19374;SDS011;9823;50.936;4.046;2023-02-07T09:28:41;44.10;;;17.10;;
19374;SDS011;9823;50.936;4.046;2023-02-07T09:31:18;64.53;;;18.70;;
19374;SDS011;9823;50.936;4.046;2023-02-07T09:33:48;36.67;;;17.60;;
19374;SDS011;9823;50.936;4.046;2023-02-07T09:36:18;36.80;;;16.30;;
19374;SDS011;9823;50.936;4.046;2023-02-07T09:38:48;47.73;;;18.03;;
19374;SDS011;9823;50.936;4.046;2023-02-07T09:41:58;46.73;;;19.30;;
19374;SDS011;9823;50.936;4.046;2023-02-07T09:46:44;42.43;;;19.47;;
19374;SDS011;9823;50.936;4.046;2023-02-07T09:51:57;43.23;;;18.37;;
19374;SDS011;9823;50.936;4.046;2023-02-07T09:54:40;41.73;;;20.30;;
19374;SDS011;9823;50.936;4.046;2023-02-07T09:57:08;34.53;;;17.20;;
19374;SDS011;9823;50.936;4.046;2023-02-07T09:59:42;29.60;;;15.57;;
19374;SDS011;9823;50.936;4.046;2023-02-07T10:02:19;33.60;;;17.23;;
19374;SDS011;9823;50.936;4.046;2023-02-07T10:04:47;54.17;;;20.97;;
19374;SDS011;9823;50.936;4.046;2023-02-07T10:07:14;36.80;;;15.83;;
19374;SDS011;9823;50.936;4.046;2023-02-07T10:09:43;41.20;;;17.73;;
19374;SDS011;9823;50.936;4.046;2023-02-07T10:12:26;30.00;;;15.50;;
19374;SDS011;9823;50.936;4.046;2023-02-07T10:20:36;44.60;;;18.00;;
19374;SDS011;9823;50.936;4.046;2023-02-07T10:30:49;33.60;;;15.40;;
19374;SDS011;9823;50.936;4.046;2023-02-07T10:33:18;35.07;;;15.80;;
19374;SDS011;9823;50.936;4.046;2023-02-07T10:35:45;64.33;;;18.50;;
19374;SDS011;9823;50.936;4.046;2023-02-07T10:38:24;33.03;;;15.40;;
19374;SDS011;9823;50.936;4.046;2023-02-07T10:40:53;29.10;;;14.20;;
19374;SDS011;9823;50.936;4.046;2023-02-07T10:45:51;40.97;;;16.43;;
19374;SDS011;9823;50.936;4.046;2023-02-07T10:48:18;69.50;;;21.77;;
19374;SDS011;9823;50.936;4.046;2023-02-07T10:50:44;48.87;;;18.50;;
19374;SDS011;9823;50.936;4.046;2023-02-07T10:53:10;70.47;;;21.47;;
19374;SDS011;9823;50.936;4.046;2023-02-07T10:55:41;104.23;;;29.67;;
19374;SDS011;9823;50.936;4.046;2023-02-07T10:58:14;87.07;;;26.30;;
19374;SDS011;9823;50.936;4.046;2023-02-07T11:00:43;37.53;;;16.10;;
19374;SDS011;9823;50.936;4.046;2023-02-07T11:03:13;26.73;;;12.53;;
19374;SDS011;9823;50.936;4.046;2023-02-07T11:08:23;28.37;;;13.50;;
19374;SDS011;9823;50.936;4.046;2023-02-07T11:10:51;42.67;;;15.70;;
19374;SDS011;9823;50.936;4.046;2023-02-07T11:13:19;51.70;;;17.00;;
19374;SDS011;9823;50.936;4.046;2023-02-07T11:15:47;65.23;;;19.73;;
19374;SDS011;9823;50.936;4.046;2023-02-07T11:21:02;32.50;;;15.03;;
19374;SDS011;9823;50.936;4.046;2023-02-07T11:23:28;31.33;;;13.87;;
19374;SDS011;9823;50.936;4.046;2023-02-07T11:25:56;32.53;;;14.77;;
19374;SDS011;9823;50.936;4.046;2023-02-07T11:28:26;49.50;;;20.13;;
19374;SDS011;9823;50.936;4.046;2023-02-07T11:30:55;26.43;;;13.00;;
19374;SDS011;9823;50.936;4.046;2023-02-07T11:33:24;26.03;;;14.10;;
19374;SDS011;9823;50.936;4.046;2023-02-07T11:36:09;106.47;;;30.03;;
19374;SDS011;9823;50.936;4.046;2023-02-07T11:38:48;41.50;;;17.13;;
19374;SDS011;9823;50.936;4.046;2023-02-07T11:41:15;58.23;;;20.90;;
19374;SDS011;9823;50.936;4.046;2023-02-07T11:43:50;119.37;;;33.00;;
19374;SDS011;9823;50.936;4.046;2023-02-07T11:46:19;67.63;;;23.57;;
19374;SDS011;9823;50.936;4.046;2023-02-07T11:48:48;33.27;;;16.37;;
19374;SDS011;9823;50.936;4.046;2023-02-07T11:51:15;34.50;;;14.23;;
19374;SDS011;9823;50.936;4.046;2023-02-07T11:53:44;41.53;;;17.23;;
19374;SDS011;9823;50.936;4.046;2023-02-07T11:56:23;33.43;;;15.87;;
19374;SDS011;9823;50.936;4.046;2023-02-07T11:58:49;42.87;;;16.90;;
19374;SDS011;9823;50.936;4.046;2023-02-07T12:01:23;38.73;;;18.63;;
19374;SDS011;9823;50.936;4.046;2023-02-07T12:03:54;82.60;;;25.57;;
19374;SDS011;9823;50.936;4.046;2023-02-07T12:06:36;64.67;;;23.23;;
19374;SDS011;9823;50.936;4.046;2023-02-07T12:09:03;34.23;;;16.13;;
19374;SDS011;9823;50.936;4.046;2023-02-07T12:11:34;31.27;;;14.80;;
19374;SDS011;9823;50.936;4.046;2023-02-07T12:14:04;27.53;;;13.17;;
19374;SDS011;9823;50.936;4.046;2023-02-07T12:16:35;39.53;;;16.33;;
19374;SDS011;9823;50.936;4.046;2023-02-07T12:19:08;34.00;;;13.67;;
19374;SDS011;9823;50.936;4.046;2023-02-07T12:21:39;43.80;;;16.70;;
19374;SDS011;9823;50.936;4.046;2023-02-07T12:24:10;32.03;;;14.67;;
19374;SDS011;9823;50.936;4.046;2023-02-07T12:39:53;45.00;;;15.17;;
19374;SDS011;9823;50.936;4.046;2023-02-07T12:42:41;53.60;;;18.63;;
19374;SDS011;9823;50.936;4.046;2023-02-07T12:45:14;36.40;;;14.30;;
19374;SDS011;9823;50.936;4.046;2023-02-07T12:52:52;30.47;;;13.43;;
19374;SDS011;9823;50.936;4.046;2023-02-07T12:55:27;24.97;;;11.67;;
19374;SDS011;9823;50.936;4.046;2023-02-07T13:11:03;26.57;;;10.67;;
19374;SDS011;9823;50.936;4.046;2023-02-07T13:16:39;60.70;;;18.60;;
19374;SDS011;9823;50.936;4.046;2023-02-07T13:19:12;31.00;;;11.90;;
19374;SDS011;9823;50.936;4.046;2023-02-07T13:22:13;61.10;;;18.13;;
19374;SDS011;9823;50.936;4.046;2023-02-07T13:24:38;31.67;;;12.30;;
19374;SDS011;9823;50.936;4.046;2023-02-07T13:27:08;36.17;;;14.20;;
19374;SDS011;9823;50.936;4.046;2023-02-07T13:29:36;73.40;;;18.87;;
19374;SDS011;9823;50.936;4.046;2023-02-07T13:32:06;25.57;;;10.73;;
19374;SDS011;9823;50.936;4.046;2023-02-07T13:37:05;30.23;;;12.53;;
19374;SDS011;9823;50.936;4.046;2023-02-07T13:44:50;39.27;;;15.53;;
19374;SDS011;9823;50.936;4.046;2023-02-07T13:57:47;51.53;;;18.70;;
19374;SDS011;9823;50.936;4.046;2023-02-07T14:00:57;51.83;;;18.57;;
19374;SDS011;9823;50.936;4.046;2023-02-07T14:03:30;38.50;;;15.03;;
19374;SDS011;9823;50.936;4.046;2023-02-07T14:06:13;30.00;;;13.80;;
19374;SDS011;9823;50.936;4.046;2023-02-07T14:08:41;26.47;;;12.43;;
19374;SDS011;9823;50.936;4.046;2023-02-07T14:14:02;25.97;;;13.40;;
19374;SDS011;9823;50.936;4.046;2023-02-07T14:16:42;36.10;;;15.00;;
19374;SDS011;9823;50.936;4.046;2023-02-07T14:19:26;38.93;;;16.23;;
19374;SDS011;9823;50.936;4.046;2023-02-07T14:24:46;59.80;;;19.80;;
19374;SDS011;9823;50.936;4.046;2023-02-07T14:27:24;28.73;;;13.87;;
19374;SDS011;9823;50.936;4.046;2023-02-07T14:29:53;34.20;;;13.87;;
19374;SDS011;9823;50.936;4.046;2023-02-07T14:32:27;61.03;;;20.13;;
19374;SDS011;9823;50.936;4.046;2023-02-07T14:42:57;55.43;;;17.73;;
19374;SDS011;9823;50.936;4.046;2023-02-07T14:45:24;82.23;;;22.30;;
19374;SDS011;9823;50.936;4.046;2023-02-07T14:47:50;33.90;;;14.27;;
19374;SDS011;9823;50.936;4.046;2023-02-07T14:50:17;39.77;;;13.43;;
19374;SDS011;9823;50.936;4.046;2023-02-07T14:52:46;28.10;;;12.77;;
19374;SDS011;9823;50.936;4.046;2023-02-07T15:03:18;35.73;;;13.57;;
19374;SDS011;9823;50.936;4.046;2023-02-07T15:05:58;43.40;;;14.30;;
19374;SDS011;9823;50.936;4.046;2023-02-07T15:08:25;39.57;;;13.87;;
19374;SDS011;9823;50.936;4.046;2023-02-07T15:10:56;38.97;;;14.97;;
19374;SDS011;9823;50.936;4.046;2023-02-07T15:18:16;50.90;;;14.80;;
19374;SDS011;9823;50.936;4.046;2023-02-07T15:20:47;27.73;;;10.73;;
19374;SDS011;9823;50.936;4.046;2023-02-07T15:23:13;37.47;;;11.73;;
19374;SDS011;9823;50.936;4.046;2023-02-07T15:25:40;22.83;;;10.33;;
19374;SDS011;9823;50.936;4.046;2023-02-07T15:28:26;49.17;;;12.73;;
19374;SDS011;9823;50.936;4.046;2023-02-07T15:31:03;51.43;;;13.43;;
19374;SDS011;9823;50.936;4.046;2023-02-07T15:33:32;30.53;;;10.73;;
19374;SDS011;9823;50.936;4.046;2023-02-07T15:36:04;41.10;;;12.47;;
19374;SDS011;9823;50.936;4.046;2023-02-07T15:38:31;35.60;;;11.97;;
19374;SDS011;9823;50.936;4.046;2023-02-07T15:40:57;33.47;;;10.70;;
19374;SDS011;9823;50.936;4.046;2023-02-07T15:43:27;22.03;;;8.73;;
19374;SDS011;9823;50.936;4.046;2023-02-07T15:45:57;24.40;;;9.73;;
19374;SDS011;9823;50.936;4.046;2023-02-07T15:48:24;26.03;;;9.20;;
19374;SDS011;9823;50.936;4.046;2023-02-07T15:50:51;18.07;;;8.00;;
19374;SDS011;9823;50.936;4.046;2023-02-07T15:53:19;22.10;;;8.33;;
19374;SDS011;9823;50.936;4.046;2023-02-07T15:55:46;24.10;;;9.23;;
19374;SDS011;9823;50.936;4.046;2023-02-07T15:58:22;22.93;;;8.73;;
19374;SDS011;9823;50.936;4.046;2023-02-07T16:00:49;21.77;;;10.10;;
19374;SDS011;9823;50.936;4.046;2023-02-07T16:03:21;20.93;;;9.27;;
19374;SDS011;9823;50.936;4.046;2023-02-07T16:05:48;20.73;;;8.17;;
19374;SDS011;9823;50.936;4.046;2023-02-07T16:11:09;18.47;;;8.60;;
19374;SDS011;9823;50.936;4.046;2023-02-07T16:13:41;21.63;;;10.60;;
19374;SDS011;9823;50.936;4.046;2023-02-07T16:16:08;30.53;;;12.87;;
19374;SDS011;9823;50.936;4.046;2023-02-07T16:21:04;44.43;;;18.60;;
19374;SDS011;9823;50.936;4.046;2023-02-07T16:23:33;49.03;;;20.97;;
19374;SDS011;9823;50.936;4.046;2023-02-07T16:26:02;47.43;;;19.93;;
19374;SDS011;9823;50.936;4.046;2023-02-07T16:28:28;50.53;;;22.17;;
19374;SDS011;9823;50.936;4.046;2023-02-07T16:30:55;46.10;;;21.70;;
19374;SDS011;9823;50.936;4.046;2023-02-07T16:33:21;59.50;;;24.07;;
19374;SDS011;9823;50.936;4.046;2023-02-07T16:35:47;69.17;;;26.63;;
19374;SDS011;9823;50.936;4.046;2023-02-07T16:38:13;65.90;;;25.97;;
19374;SDS011;9823;50.936;4.046;2023-02-07T16:40:39;73.27;;;27.70;;
19374;SDS011;9823;50.936;4.046;2023-02-07T16:43:07;81.87;;;29.13;;
19374;SDS011;9823;50.936;4.046;2023-02-07T16:45:33;65.43;;;27.53;;
19374;SDS011;9823;50.936;4.046;2023-02-07T16:48:02;68.70;;;27.63;;
19374;SDS011;9823;50.936;4.046;2023-02-07T16:50:29;74.50;;;28.90;;
19374;SDS011;9823;50.936;4.046;2023-02-07T16:52:57;72.43;;;30.33;;
19374;SDS011;9823;50.936;4.046;2023-02-07T16:55:26;70.40;;;29.53;;
19374;SDS011;9823;50.936;4.046;2023-02-07T16:57:53;77.57;;;30.80;;
19374;SDS011;9823;50.936;4.046;2023-02-07T17:00:22;84.80;;;32.27;;
19374;SDS011;9823;50.936;4.046;2023-02-07T17:02:49;78.07;;;30.87;;
19374;SDS011;9823;50.936;4.046;2023-02-07T17:05:22;80.27;;;29.67;;
19374;SDS011;9823;50.936;4.046;2023-02-07T17:07:49;66.60;;;28.87;;
19374;SDS011;9823;50.936;4.046;2023-02-07T17:12:49;70.07;;;29.07;;
19374;SDS011;9823;50.936;4.046;2023-02-07T17:15:17;73.87;;;28.57;;
19374;SDS011;9823;50.936;4.046;2023-02-07T17:17:43;77.80;;;28.93;;
19374;SDS011;9823;50.936;4.046;2023-02-07T17:20:26;83.83;;;28.70;;